This is the latest recevied weather packets stored in our database for station/object S56VIL-11. If no packets are shown the sender has not sent any weather packets the latest 10 day(s).
| Time | Temp. | Humidity | Pressure | Rain* | Wind** | Luminosity | Snow |
|---|---|---|---|---|---|---|---|
| 1777359246 | 12.78° C | 54% | 1029.4 hPa | - | - | - | - |
| 1777358343 | 12.22° C | 55% | 1029.4 hPa | - | - | - | - |
| 1777357446 | 12.22° C | 55% | 1029.3 hPa | - | - | - | - |
| 1777356542 | 12.22° C | 55% | 1029.4 hPa | - | - | - | - |
| 1777355642 | 11.67° C | 55% | 1029.2 hPa | - | - | - | - |
| 1777354742 | 11.67° C | 55% | 1029.2 hPa | - | - | - | - |
| 1777353848 | 11.11° C | 55% | 1029 hPa | - | - | - | - |
| 1777352941 | 11.11° C | 55% | 1029.1 hPa | - | - | - | - |
| 1777352045 | 10.56° C | 55% | 1028.9 hPa | - | - | - | - |
| 1777351141 | 10.56° C | 55% | 1028.9 hPa | - | - | - | - |
| 1777350241 | 10.56° C | 55% | 1028.8 hPa | - | - | - | - |
| 1777349341 | 10.56° C | 55% | 1028.7 hPa | - | - | - | - |
| 1777348444 | 10.56° C | 55% | 1028.7 hPa | - | - | - | - |
| 1777347540 | 10.56° C | 55% | 1028.8 hPa | - | - | - | - |
| 1777346643 | 10.56° C | 55% | 1028.9 hPa | - | - | - | - |
| 1777345740 | 11.11° C | 55% | 1029 hPa | - | - | - | - |
| 1777344840 | 11.11° C | 55% | 1029.1 hPa | - | - | - | - |
| 1777343940 | 11.11° C | 55% | 1029.2 hPa | - | - | - | - |
| 1777343043 | 11.11° C | 54% | 1029.1 hPa | - | - | - | - |
| 1777342139 | 11.11° C | 54% | 1029.3 hPa | - | - | - | - |
| 1777341239 | 11.67° C | 54% | 1029.3 hPa | - | - | - | - |
| 1777340339 | 11.67° C | 54% | 1029.4 hPa | - | - | - | - |
| 1777339442 | 11.67° C | 54% | 1029.4 hPa | - | - | - | - |
| 1777338539 | 11.67° C | 54% | 1029.4 hPa | - | - | - | - |
| 1777337641 | 11.67° C | 54% | 1029.4 hPa | - | - | - | - |
* Rain since midnight (hover to see other rain measurements)
** Current wind speed in m/s (hover to see current wind gust speed)